createdAt,value
2018-11-20T00:02:43.799Z,3.60
2018-11-20T00:05:32.922Z,3.60
2018-11-20T00:08:22.110Z,3.50
2018-11-20T00:11:29.167Z,3.50
2018-11-20T00:14:27.229Z,3.40
2018-11-20T00:17:25.552Z,3.40
2018-11-20T00:20:09.230Z,3.40
2018-11-20T00:22:58.429Z,3.40
2018-11-20T00:25:46.143Z,3.40
2018-11-20T00:28:35.874Z,3.30
2018-11-20T00:31:23.269Z,3.30
2018-11-20T00:34:10.768Z,3.30
2018-11-20T00:37:03.874Z,3.30
2018-11-20T00:39:55.883Z,3.30
2018-11-20T00:42:56.843Z,3.30
2018-11-20T00:45:44.275Z,3.30
2018-11-20T00:48:32.066Z,3.30
2018-11-20T00:51:19.766Z,3.30
2018-11-20T00:54:23.764Z,3.30
2018-11-20T00:57:16.158Z,3.20
2018-11-20T01:00:11.286Z,3.30
2018-11-20T01:03:06.537Z,3.20
2018-11-20T01:06:04.827Z,3.20
2018-11-20T01:09:03.113Z,3.20
2018-11-20T01:12:04.272Z,3.20
2018-11-20T01:14:56.508Z,3.20
2018-11-20T01:17:51.515Z,3.20
2018-11-20T01:20:33.348Z,3.20
2018-11-20T01:23:21.070Z,3.20
2018-11-20T01:26:02.390Z,3.20
2018-11-20T01:28:50.100Z,3.20
2018-11-20T01:31:42.084Z,3.20
2018-11-20T01:34:29.485Z,3.10
2018-11-20T01:37:24.557Z,3.10
2018-11-20T01:40:19.753Z,3.10
2018-11-20T01:43:07.279Z,3.10
2018-11-20T01:46:05.242Z,3.10
2018-11-20T01:48:57.045Z,3.10
2018-11-20T01:51:51.843Z,3.10
2018-11-20T01:54:42.632Z,3.10
2018-11-20T01:57:40.790Z,3.10
2018-11-20T02:00:32.613Z,3.10
2018-11-20T02:03:21.788Z,3.10
2018-11-20T02:06:26.027Z,3.10
2018-11-20T02:09:07.480Z,3.10
2018-11-20T02:12:05.781Z,3.10
2018-11-20T02:14:53.443Z,3.10
2018-11-20T02:17:49.623Z,3.20
2018-11-20T02:20:50.522Z,3.20
2018-11-20T02:23:38.059Z,3.20
2018-11-20T02:26:27.890Z,3.20
2018-11-20T02:29:19.863Z,3.20
2018-11-20T02:32:17.836Z,3.20
2018-11-20T02:34:58.960Z,3.20
2018-11-20T02:37:46.599Z,3.20
2018-11-20T02:40:41.680Z,3.20
2018-11-20T02:43:23.202Z,3.20
2018-11-20T02:46:10.533Z,3.20
2018-11-20T02:49:11.463Z,3.20
2018-11-20T02:51:58.956Z,3.20
2018-11-20T02:54:50.612Z,3.20
2018-11-20T02:57:38.398Z,3.20
2018-11-20T03:00:46.199Z,3.20
2018-11-20T03:03:35.416Z,3.30
2018-11-20T03:06:20.157Z,3.30
2018-11-20T03:09:13.293Z,3.30
2018-11-20T03:12:05.036Z,3.30
2018-11-20T03:14:52.589Z,3.30
2018-11-20T03:17:47.552Z,3.30
2018-11-20T03:20:42.796Z,3.30
2018-11-20T03:23:25.683Z,3.30
2018-11-20T03:26:15.241Z,3.30
2018-11-20T03:30:05.827Z,3.30
2018-11-20T03:33:04.347Z,3.30
2018-11-20T03:35:51.876Z,3.30
2018-11-20T03:38:39.286Z,3.30
2018-11-20T03:41:34.681Z,3.30
2018-11-20T03:44:13.233Z,3.30
2018-11-20T03:47:05.049Z,3.30
2018-11-20T03:49:52.662Z,3.30
2018-11-20T03:52:48.617Z,3.30
2018-11-20T03:55:32.086Z,3.30
2018-11-20T03:58:27.015Z,3.30
2018-11-20T04:01:16.160Z,3.30
2018-11-20T04:03:57.819Z,3.30
2018-11-20T04:07:02.034Z,3.30
2018-11-20T04:09:51.207Z,3.30
2018-11-20T04:12:31.323Z,3.40
2018-11-20T04:15:29.522Z,3.40
2018-11-20T04:18:27.629Z,3.40
2018-11-20T04:21:15.333Z,3.40
2018-11-20T04:24:03.080Z,3.40
2018-11-20T04:27:01.213Z,3.40
2018-11-20T04:29:59.285Z,3.40
2018-11-20T04:32:36.898Z,3.40
2018-11-20T04:35:17.013Z,3.40
2018-11-20T04:38:17.875Z,3.40
2018-11-20T04:41:16.624Z,3.40
2018-11-20T04:44:08.645Z,3.40
2018-11-20T04:47:06.528Z,3.40
2018-11-20T04:49:49.331Z,3.40
2018-11-20T04:52:41.276Z,3.40
2018-11-20T04:55:29.150Z,3.40
2018-11-20T04:58:07.076Z,3.40
2018-11-20T05:00:54.858Z,3.40
2018-11-20T05:03:42.342Z,3.40
2018-11-20T05:06:46.700Z,3.40
2018-11-20T05:09:35.749Z,3.40
2018-11-20T05:12:20.328Z,3.40
2018-11-20T05:15:16.124Z,3.50
2018-11-20T05:18:08.292Z,3.40
2018-11-20T05:20:57.257Z,3.40
2018-11-20T05:23:46.457Z,3.50
2018-11-20T05:26:34.029Z,3.50
2018-11-20T05:29:35.048Z,3.50
2018-11-20T05:32:42.526Z,3.40
2018-11-20T05:35:34.578Z,3.40
2018-11-20T05:38:20.080Z,3.50
2018-11-20T05:41:07.797Z,3.50
2018-11-20T05:43:58.340Z,3.40
2018-11-20T05:46:59.453Z,3.50
2018-11-20T05:49:47.502Z,3.50
2018-11-20T05:52:39.560Z,3.40
2018-11-20T05:55:27.256Z,3.40
2018-11-20T05:58:20.544Z,3.40
2018-11-20T06:01:12.108Z,3.40
2018-11-20T06:04:06.813Z,3.40
2018-11-20T06:06:54.543Z,3.40
2018-11-20T06:09:49.461Z,3.40
2018-11-20T06:12:36.866Z,3.40
2018-11-20T06:15:35.549Z,3.50
2018-11-20T06:18:18.545Z,3.40
2018-11-20T06:20:57.851Z,3.40
2018-11-20T06:23:45.178Z,3.40
2018-11-20T06:26:42.917Z,3.40
2018-11-20T06:29:30.316Z,3.50
2018-11-20T06:32:25.572Z,3.50
2018-11-20T06:35:23.822Z,3.50
2018-11-20T06:38:22.109Z,3.50
2018-11-20T06:41:29.413Z,3.50
2018-11-20T06:44:24.663Z,3.50
2018-11-20T06:47:19.762Z,3.50
2018-11-20T06:50:20.817Z,3.50
2018-11-20T06:53:00.315Z,3.50
2018-11-20T06:56:07.152Z,3.50
2018-11-20T06:58:54.717Z,3.50
2018-11-20T07:01:47.003Z,3.50
2018-11-20T07:04:39.090Z,3.50
2018-11-20T07:07:26.883Z,3.50
2018-11-20T07:10:15.890Z,3.50
2018-11-20T07:13:13.935Z,3.50
2018-11-20T07:16:01.285Z,3.50
2018-11-20T07:18:48.832Z,3.50
2018-11-20T07:21:38.056Z,3.50
2018-11-20T07:24:25.592Z,3.50
2018-11-20T07:27:25.140Z,3.50
2018-11-20T07:30:19.550Z,3.50
2018-11-20T07:33:17.639Z,3.50
2018-11-20T07:35:58.349Z,3.50
2018-11-20T07:38:55.764Z,3.50
2018-11-20T07:41:44.936Z,3.50
2018-11-20T07:44:40.664Z,3.50
2018-11-20T07:47:20.625Z,3.50
2018-11-20T07:50:08.393Z,3.50
2018-11-20T07:52:55.955Z,3.50
2018-11-20T07:55:45.112Z,3.50
2018-11-20T07:58:32.824Z,3.50
2018-11-20T08:01:21.975Z,3.50
2018-11-20T08:04:03.350Z,3.50
2018-11-20T08:06:49.126Z,3.50
2018-11-20T08:09:41.070Z,3.50
2018-11-20T08:12:38.815Z,3.50
2018-11-20T08:15:33.743Z,3.50
2018-11-20T08:18:31.533Z,3.50
2018-11-20T08:21:19.331Z,3.50
2018-11-20T08:24:06.824Z,3.50
2018-11-20T08:26:49.198Z,3.50
2018-11-20T08:29:38.357Z,3.50
2018-11-20T08:32:25.824Z,3.50
2018-11-20T08:35:15.042Z,3.50
2018-11-20T08:38:02.560Z,3.50
2018-11-20T08:40:54.732Z,3.50
2018-11-20T08:43:46.495Z,3.50
2018-11-20T08:46:41.568Z,3.50
2018-11-20T08:49:29.229Z,3.50
2018-11-20T08:52:17.171Z,3.50
2018-11-20T08:55:12.705Z,3.50
2018-11-20T08:58:16.691Z,3.50
2018-11-20T09:00:56.846Z,3.50
2018-11-20T09:03:51.729Z,3.50
2018-11-20T09:06:43.793Z,3.50
2018-11-20T09:09:28.982Z,3.50
2018-11-20T09:12:12.093Z,3.50
2018-11-20T09:14:59.883Z,3.60
2018-11-20T09:17:47.620Z,3.50
2018-11-20T09:20:41.407Z,3.50
2018-11-20T09:23:29.434Z,3.50
2018-11-20T09:26:14.662Z,3.50
2018-11-20T09:29:06.570Z,3.60
2018-11-20T09:31:54.169Z,3.60
2018-11-20T09:34:39.701Z,3.60
2018-11-20T09:37:27.708Z,3.60
2018-11-20T09:40:55.136Z,3.60
2018-11-20T09:43:46.712Z,3.60
2018-11-20T09:46:47.551Z,3.60
2018-11-20T09:49:35.239Z,3.60
2018-11-20T09:52:34.545Z,3.60
2018-11-20T09:55:39.894Z,3.70
2018-11-20T09:58:27.822Z,3.60
2018-11-20T10:01:15.018Z,3.70
2018-11-20T10:04:10.038Z,3.70
2018-11-20T10:07:05.297Z,3.70
2018-11-20T10:10:04.922Z,3.70
2018-11-20T10:12:48.387Z,3.70
2018-11-20T10:15:43.644Z,3.80
2018-11-20T10:18:31.107Z,3.70
2018-11-20T10:21:18.855Z,3.70
2018-11-20T10:24:22.778Z,3.80
2018-11-20T10:27:10.485Z,3.80
2018-11-20T10:30:05.833Z,3.80
2018-11-20T10:32:54.039Z,3.80
2018-11-20T10:35:43.184Z,3.80
2018-11-20T10:38:38.608Z,3.80
2018-11-20T10:41:26.314Z,3.80
2018-11-20T10:44:13.696Z,3.70
2018-11-20T10:47:01.417Z,3.70
2018-11-20T10:49:53.257Z,3.70
2018-11-20T10:52:45.375Z,3.70
2018-11-20T10:55:43.454Z,3.70
2018-11-20T10:58:31.035Z,3.80
2018-11-20T11:01:18.830Z,3.80
2018-11-20T11:04:22.961Z,3.80
2018-11-20T11:07:02.660Z,3.80
2018-11-20T11:09:41.244Z,3.80
2018-11-20T11:12:39.386Z,3.80
2018-11-20T11:15:37.572Z,3.80
2018-11-20T11:18:41.702Z,3.80
2018-11-20T11:21:39.538Z,3.80
2018-11-20T11:24:27.204Z,3.70
2018-11-20T11:27:22.161Z,3.70
2018-11-20T11:30:10.145Z,3.70
2018-11-20T11:32:59.368Z,3.70
2018-11-20T11:35:48.202Z,3.70
2018-11-20T11:38:32.468Z,3.70
2018-11-20T11:41:31.993Z,3.70
2018-11-20T11:44:19.460Z,3.70
2018-11-20T11:47:26.808Z,3.70
2018-11-20T11:50:28.130Z,3.70
2018-11-20T11:53:20.096Z,3.70
2018-11-20T11:56:09.253Z,3.70
2018-11-20T11:59:04.205Z,3.70
2018-11-20T12:04:46.649Z,3.70
2018-11-20T12:07:26.396Z,3.80
2018-11-20T12:10:15.543Z,3.70
2018-11-20T12:13:04.677Z,3.80
2018-11-20T12:16:12.069Z,3.80
2018-11-20T12:18:44.213Z,3.80
2018-11-20T12:21:33.415Z,3.80
2018-11-20T12:24:40.936Z,3.80
2018-11-20T12:27:28.675Z,3.80
2018-11-20T12:30:08.900Z,3.80
2018-11-20T12:32:56.479Z,3.80
2018-11-20T12:35:48.189Z,3.80
2018-11-20T12:38:55.308Z,3.80
2018-11-20T12:41:47.025Z,3.80
2018-11-20T12:44:36.651Z,3.80
2018-11-20T12:47:34.374Z,3.80
2018-11-20T12:53:32.234Z,3.80
2018-11-20T12:56:19.747Z,3.80
2018-11-20T12:59:07.222Z,3.80
2018-11-20T13:01:56.919Z,3.80
2018-11-20T13:04:50.039Z,3.80
2018-11-20T13:07:36.377Z,3.80
2018-11-20T13:10:26.476Z,3.80
2018-11-20T13:13:24.520Z,3.80
2018-11-20T13:16:16.596Z,3.70
2018-11-20T13:19:02.897Z,3.70
2018-11-20T13:21:50.594Z,3.80
2018-11-20T13:24:46.425Z,3.80
2018-11-20T13:27:33.964Z,3.80
2018-11-20T13:30:21.646Z,3.80
2018-11-20T13:33:15.859Z,3.80
2018-11-20T13:35:58.204Z,3.80
2018-11-20T13:38:46.054Z,3.80
2018-11-20T13:42:06.577Z,3.80
2018-11-20T13:45:21.822Z,3.80
2018-11-20T13:48:22.826Z,3.80
2018-11-20T13:51:14.440Z,3.70
2018-11-20T13:54:12.978Z,3.70
2018-11-20T13:57:00.685Z,3.70
2018-11-20T13:59:52.520Z,3.70
2018-11-20T14:02:44.556Z,3.70
2018-11-20T14:05:51.561Z,3.70
2018-11-20T14:08:35.554Z,3.70
2018-11-20T14:11:37.052Z,3.70
2018-11-20T14:14:38.282Z,3.70
2018-11-20T14:17:42.677Z,3.70
2018-11-20T14:20:36.959Z,3.70
2018-11-20T14:23:34.936Z,3.70
2018-11-20T14:26:22.933Z,3.70
2018-11-20T14:29:10.459Z,3.70
2018-11-20T14:32:14.408Z,3.70
2018-11-20T14:35:06.227Z,3.70
2018-11-20T14:37:55.390Z,3.80
2018-11-20T14:40:44.507Z,3.80
2018-11-20T14:43:39.335Z,3.80
2018-11-20T14:46:37.601Z,3.80
2018-11-20T14:49:25.431Z,3.80
2018-11-20T14:55:13.116Z,3.80
2018-11-20T14:58:00.973Z,3.80
2018-11-20T15:00:48.510Z,3.80
2018-11-20T15:03:36.121Z,3.80
2018-11-20T15:06:23.924Z,3.80
2018-11-20T15:09:15.773Z,3.80
2018-11-20T15:12:02.332Z,3.80
2018-11-20T15:14:50.127Z,3.70
2018-11-20T15:17:51.118Z,3.70
2018-11-20T15:20:49.162Z,3.70
2018-11-20T15:23:47.147Z,3.70
2018-11-20T15:26:42.160Z,3.60
2018-11-20T15:30:21.611Z,3.50
2018-11-20T15:33:17.989Z,3.50
2018-11-20T15:36:06.525Z,3.40
2018-11-20T15:38:53.367Z,3.30
2018-11-20T15:41:40.685Z,3.20
2018-11-20T15:44:27.791Z,3.10
2018-11-20T15:47:16.166Z,3.00
2018-11-20T15:49:59.144Z,2.90
2018-11-20T15:52:58.216Z,2.80
2018-11-20T15:55:45.427Z,2.70
2018-11-20T15:58:32.929Z,2.60
2018-11-20T16:09:20.710Z,2.40
2018-11-20T16:12:48.325Z,2.30
2018-11-20T16:16:13.539Z,2.20
2018-11-20T16:19:27.347Z,2.10
2018-11-20T16:26:25.903Z,2.00
2018-11-20T16:29:43.566Z,1.90
2018-11-20T16:32:24.597Z,1.90
2018-11-20T16:35:38.988Z,1.80
2018-11-20T16:38:27.473Z,1.80
2018-11-20T16:41:31.404Z,1.70
2018-11-20T16:44:18.661Z,1.70
2018-11-20T16:47:09.581Z,1.70
2018-11-20T16:50:00.451Z,1.60
2018-11-20T16:52:47.121Z,1.70
2018-11-20T16:55:42.090Z,1.60
2018-11-20T16:58:28.356Z,1.70
2018-11-20T17:01:15.204Z,1.60
2018-11-20T17:04:02.245Z,1.60
2018-11-20T17:06:47.261Z,1.60
2018-11-20T17:09:34.546Z,1.60
2018-11-20T17:12:28.552Z,1.60
2018-11-20T17:15:07.328Z,1.60
2018-11-20T17:17:53.873Z,1.60
2018-11-20T17:20:45.253Z,1.60
2018-11-20T17:23:48.655Z,1.60
2018-11-20T17:26:40.013Z,1.60
2018-11-20T17:29:31.378Z,1.70
2018-11-20T17:32:15.515Z,1.70
2018-11-20T17:35:10.578Z,1.70
2018-11-20T17:37:57.834Z,1.70
2018-11-20T17:40:44.659Z,1.70
2018-11-20T17:43:32.965Z,1.70
2018-11-20T17:46:27.411Z,1.70
2018-11-20T17:49:14.508Z,1.80
2018-11-20T17:52:21.089Z,1.80
2018-11-20T17:55:09.798Z,1.80
2018-11-20T17:58:01.003Z,1.80
2018-11-20T18:04:31.458Z,1.80
2018-11-20T18:07:25.685Z,1.80
2018-11-20T18:10:14.047Z,1.80
2018-11-20T18:12:55.264Z,1.90
2018-11-20T18:15:43.721Z,1.90
2018-11-20T18:18:30.777Z,1.90
2018-11-20T18:21:24.945Z,1.90
2018-11-20T18:24:23.199Z,1.90
2018-11-20T18:27:04.542Z,1.90
2018-11-20T18:30:02.084Z,2.00
2018-11-20T18:32:52.816Z,1.90
2018-11-20T18:35:52.875Z,2.00
2018-11-20T18:38:53.491Z,2.00
2018-11-20T18:41:56.933Z,2.00
2018-11-20T18:44:44.575Z,2.00
2018-11-20T18:47:45.231Z,2.10
2018-11-20T18:50:39.567Z,2.10
2018-11-20T18:53:25.294Z,2.10
2018-11-20T18:56:16.575Z,2.10
2018-11-20T18:59:05.079Z,2.20
2018-11-20T19:01:57.353Z,2.20
2018-11-20T19:04:49.264Z,2.20
2018-11-20T19:07:25.855Z,2.20
2018-11-20T19:31:19.186Z,2.40
2018-11-20T19:34:16.287Z,2.40
2018-11-20T19:37:10.569Z,2.40
2018-11-20T19:40:01.473Z,2.40
2018-11-20T19:42:58.789Z,2.40
2018-11-20T19:45:47.725Z,2.40
2018-11-20T19:48:51.084Z,2.40
2018-11-20T19:51:38.063Z,2.40
2018-11-20T19:54:26.439Z,2.40
2018-11-20T19:57:13.325Z,2.40
2018-11-20T20:00:00.097Z,2.40
2018-11-20T20:02:50.989Z,2.40
2018-11-20T20:05:44.715Z,2.50
2018-11-20T20:08:45.448Z,2.50
2018-11-20T20:11:34.419Z,2.50
2018-11-20T20:14:23.219Z,2.50
2018-11-20T20:17:20.885Z,2.50
2018-11-20T20:23:12.364Z,2.60
2018-11-20T20:26:01.283Z,2.60
2018-11-20T20:28:50.131Z,2.60
2018-11-20T20:31:37.169Z,2.60
2018-11-20T20:34:28.577Z,2.60
2018-11-20T20:37:29.322Z,2.60
2018-11-20T20:40:16.487Z,2.60
2018-11-20T20:43:23.076Z,2.70
2018-11-20T20:46:10.207Z,2.70
2018-11-20T20:48:57.270Z,2.70
2018-11-20T20:51:46.146Z,2.70
2018-11-20T20:54:33.220Z,2.70
2018-11-20T20:57:24.873Z,2.80
2018-11-20T21:00:12.246Z,2.80
2018-11-20T21:03:15.973Z,2.70
2018-11-20T21:06:10.568Z,2.70
2018-11-20T21:08:58.452Z,2.70
2018-11-20T21:11:56.389Z,2.70
2018-11-20T21:14:48.042Z,2.70
2018-11-20T21:17:36.898Z,2.70
2018-11-20T21:20:27.562Z,2.70
2018-11-20T21:23:18.473Z,2.70
2018-11-20T21:29:32.515Z,2.60
2018-11-20T21:32:33.923Z,2.50
2018-11-20T21:35:14.385Z,2.50
2018-11-20T21:38:17.951Z,2.50
2018-11-20T21:41:06.793Z,2.40
2018-11-20T21:44:04.249Z,2.40
2018-11-20T21:46:53.076Z,2.30
2018-11-20T21:49:53.746Z,2.30
2018-11-20T21:52:42.560Z,2.30
2018-11-20T21:55:29.479Z,2.30
2018-11-20T21:58:16.737Z,2.20
2018-11-20T22:01:22.209Z,2.20
2018-11-20T22:04:19.744Z,2.20
2018-11-20T22:07:06.999Z,2.10
2018-11-20T22:10:13.713Z,2.10
2018-11-20T22:13:00.887Z,2.10
2018-11-20T22:15:47.978Z,2.00
2018-11-20T22:18:36.788Z,2.00
2018-11-20T22:21:29.983Z,2.00
2018-11-20T22:24:29.109Z,2.00
2018-11-20T22:27:26.854Z,2.00
2018-11-20T22:30:18.514Z,1.90
2018-11-20T22:33:22.084Z,1.90
2018-11-20T22:36:09.416Z,1.90
2018-11-20T22:38:58.205Z,1.90
2018-11-20T22:41:46.930Z,1.80
2018-11-20T22:44:43.166Z,1.80
2018-11-20T22:47:43.883Z,1.80
2018-11-20T22:50:30.812Z,1.80
2018-11-20T22:53:19.535Z,1.80
2018-11-20T22:56:08.310Z,1.70
2018-11-20T22:59:08.739Z,1.70
2018-11-20T23:01:55.772Z,1.70
2018-11-20T23:05:04.712Z,1.70
2018-11-20T23:07:45.334Z,1.80
2018-11-20T23:10:16.831Z,1.80
2018-11-20T23:12:46.490Z,1.80
2018-11-20T23:15:16.483Z,1.80
2018-11-20T23:17:46.133Z,1.80
2018-11-20T23:20:15.772Z,1.80
2018-11-20T23:22:45.411Z,1.80
2018-11-20T23:25:15.667Z,1.80
2018-11-20T23:27:55.972Z,1.80
2018-11-20T23:30:25.600Z,1.80
2018-11-20T23:32:55.264Z,1.80
2018-11-20T23:35:24.892Z,1.80
2018-11-20T23:37:54.534Z,1.70
2018-11-20T23:40:24.153Z,1.80
2018-11-20T23:42:53.783Z,1.70
2018-11-20T23:45:23.445Z,1.70
2018-11-20T23:47:53.095Z,1.70
2018-11-20T23:50:22.769Z,1.70
2018-11-20T23:52:58.119Z,1.60
2018-11-20T23:55:33.811Z,1.60
2018-11-20T23:58:12.616Z,1.60
